Latest Weather Observations for Liawenee

IDT60801

Issued at 7:03 pm EDT Friday 27 March 2015 (issued every 30 minutes, with the page automatically refreshed every 10 minutes)

About weather observations | Map of weather stations | Latest weather observations for TAS | Other Formats
Station Details ID: 096033 Name: LIAWENEE Lat: -41.90 Lon: 146.67 Height: 1057.0 m
Data from the previous 72 hours. | See also: Recent months at Liawenee
Date/Time
EDT
Temp
°C
App
Temp
°C
Dew
Point
Rel
Hum
%
Delta-T
°C
Wind Press
QNH
hPa
Press
MSL
hPa
Rain
since 9 am
mm
Dir
 
Spd
km/h
Gust
km/h
Spd
kts
Gust
kts
27/07:00pm 6.0 1.2 5.7 98 0.1 SSW 20 28 11 15 1018.2 1016.8 6.8
27/06:30pm 6.1 0.2 5.7 97 0.2 SW 26 41 14 22 1017.6 1016.3 6.6
27/06:00pm 6.3 0.0 5.9 97 0.2 SSW 28 37 15 20 1017.0 1015.6 6.6
27/05:30pm 6.5 -0.1 5.9 96 0.3 SSW 30 44 16 24 1016.7 1015.4 6.6
27/05:00pm 6.6 0.4 6.2 97 0.2 SSW 28 39 15 21 1016.1 1014.7 5.8
27/04:30pm 6.4 -0.2 6.0 97 0.2 SSW 30 39 16 21 1015.6 1014.2 5.6
27/04:00pm 6.3 -0.9 5.9 97 0.2 SSW 33 43 18 23 1015.3 1013.9 5.4
27/03:32pm 6.9 -0.9 6.5 97 0.2 SSW 37 56 20 30 1014.9 1013.4 5.2
27/03:30pm 6.9 -1.4 6.3 96 0.3 SSW 39 56 21 30 1014.9 1013.4 5.2
27/03:23pm 6.9 -1.0 6.3 96 0.3 SSW 37 56 20 30 1014.7 1013.3 5.2
27/03:00pm 6.7 -1.9 6.3 97 0.2 SSW 41 54 22 29 1014.5 1013.1 5.2
27/02:30pm 6.8 -2.2 6.2 96 0.3 SSW 43 63 23 34 1014.3 1012.9 5.0
27/02:07pm 6.7 -2.3 6.3 97 0.2 SSW 43 61 23 33 1014.1 1012.6 5.0
27/02:00pm 6.6 -2.1 6.2 97 0.2 SSW 41 52 22 28 1014.2 1012.8 5.0
27/01:32pm 6.6 -1.7 6.0 96 0.3 SSW 39 57 21 31 1014.2 1012.8 5.0
27/01:30pm 6.6 -2.1 6.0 96 0.3 SSW 41 57 22 31 1014.2 1012.8 5.0
27/01:00pm 6.5 -1.0 6.1 97 0.2 SSW 35 54 19 29 1014.1 1012.6 4.6
27/12:57pm 6.2 -1.4 5.6 96 0.3 SSW 35 54 19 29 1014.1 1012.6 4.6
27/12:30pm 6.1 -3.1 5.5 96 0.3 SW 43 52 23 28 1013.9 1012.4 4.4
27/12:14pm 6.0 -2.1 5.4 96 0.3 SW 37 56 20 30 1013.7 1012.3 4.4
27/12:00pm 6.1 -1.1 5.7 97 0.2 SW 33 48 18 26 1013.5 1012.1 4.4
27/11:56am 6.0 -1.6 5.6 97 0.2 SSW 35 54 19 29 1013.5 1012.1 4.4
27/11:30am 5.4 -2.8 4.8 96 0.3 SW 37 46 20 25 1013.1 1011.6 3.6
27/11:14am 5.0 -2.5 4.4 96 0.3 SW 33 52 18 28 1012.9 1011.4 3.4
27/11:00am 4.7 -2.8 4.3 97 0.2 SW 33 43 18 23 1012.7 1011.3 3.2
27/10:30am 4.2 -3.3 3.6 96 0.3 SW 32 43 17 23 1012.4 1010.9 2.2
27/10:00am 4.0 -2.7 3.6 97 0.2 SW 28 50 15 27 1012.0 1010.5 1.2
27/09:52am 3.8 -3.3 3.4 97 0.2 WSW 30 50 16 27 1011.8 1010.3 1.0
27/09:30am 3.4 -3.0 3.0 97 0.2 WSW 26 33 14 18 1011.6 1010.1 0.8
27/09:00am 2.6 -2.6 2.2 97 0.2 WSW 19 24 10 13 1011.5 1010.0 1.0
27/08:30am 1.9 -3.7 1.5 97 0.2 WSW 20 30 11 16 1011.6 1010.1 0.6
27/08:00am 2.0 -4.7 1.6 97 0.2 SW 26 37 14 20 1011.5 1010.0 0.2
27/07:30am 2.1 -4.9 1.7 97 0.2 WSW 28 37 15 20 1011.0 1009.5 0.2
27/07:00am 2.0 -4.3 1.7 98 0.1 WSW 24 32 13 17 1010.8 1009.2 0.2
27/06:30am 1.2 -3.8 1.1 99 0.0 WSW 17 22 9 12 1010.4 1008.9 0.2
27/06:00am -0.3 -5.6 -0.4 99 0.0 WSW 17 20 9 11 1010.2 1008.7 0.2
27/05:30am -0.1 -5.0 -0.4 98 0.1 WSW 15 19 8 10 1010.2 1008.7 0.2
27/05:00am 0.5 -3.5 0.4 99 0.0 WSW 11 15 6 8 1010.0 1008.4 0.2
27/04:30am -0.6 -5.2 -0.9 98 0.1 W 13 15 7 8 1009.9 1008.3 0.2
27/04:00am -0.1 -3.9 -0.4 98 0.1 W 9 11 5 6 1010.0 1008.4 0.2
27/03:30am -0.1 -4.6 -0.2 99 0.0 WNW 13 13 7 7 1009.9 1008.3 0.2
27/03:00am -1.7 -5.3 -2.0 98 0.0 SW 7 9 4 5 1010.2 1008.7 0.2
27/02:30am -1.8 -6.2 -2.1 98 0.0 W 11 11 6 6 1010.1 1008.6 0.2
27/02:00am -0.5 -4.3 -0.6 99 0.0 WNW 9 11 5 6 1010.0 1008.4 0.2
27/01:30am -1.5 -5.4 -1.6 99 0.0 SW 9 13 5 7 1010.0 1008.4 0.2
27/01:00am -1.0 -4.5 -1.1 99 0.0 NW 7 13 4 7 1009.9 1008.3 0.2
27/12:30am -0.9 -4.2 -1.2 98 0.1 NW 6 9 3 5 1010.1 1008.6 0.2
27/12:00am -0.3 -2.3 -0.4 99 0.0 CALM 0 0 0 0 1010.0 1008.4 0.2
 
Date/Time
EDT
Temp
°C
App
Temp
°C
Dew
Point
Rel
Hum
%
Delta-T
°C
Wind Press
QNH
hPa
Press
MSL
hPa
Rain
since 9 am
mm
Dir
 
Spd
km/h
Gust
km/h
Spd
kts
Gust
kts
26/11:30pm -0.6 -2.7 -0.9 98 0.1 CALM 0 0 0 0 1010.4 1008.9 0.2
26/11:00pm -0.2 -2.3 -0.5 98 0.1 CALM 0 0 0 0 1010.4 1008.9 0.2
26/10:30pm 0.4 -3.3 0.1 98 0.1 NW 9 11 5 6 1010.6 1009.1 0.2
26/10:00pm 0.2 -3.0 -0.2 97 0.2 WNW 6 9 3 5 1010.8 1009.2 0.2
26/09:30pm 0.1 -2.3 -0.5 96 0.2 NNE 2 7 1 4 1010.6 1009.1 0.2
26/09:00pm 1.5 -1.2 0.5 93 0.4 NNE 4 7 2 4 1010.4 1008.9 0.2
26/08:30pm 2.6 -0.4 1.1 90 0.6 NNW 6 7 3 4 1010.6 1009.1 0.2
26/08:00pm 3.4 0.2 1.0 84 1.0 NW 7 9 4 5 1010.6 1009.1 0.2
26/07:30pm 4.2 0.7 1.2 81 1.3 NW 9 13 5 7 1010.6 1009.1 0.2
26/07:00pm 5.0 1.2 1.8 80 1.4 WNW 11 15 6 8 1010.4 1008.9 0.2
26/06:30pm 5.5 1.4 2.0 78 1.5 WNW 13 20 7 11 1010.2 1008.7 0.2
26/06:00pm 7.7 3.8 3.2 73 2.0 WNW 13 24 7 13 1010.0 1008.4 0.2
26/05:30pm 6.8 1.4 1.5 69 2.3 WNW 19 28 10 15 1009.8 1008.2 0.2
26/05:00pm 7.7 2.6 3.0 72 2.1 W 19 30 10 16 1009.8 1008.2 0.2
26/04:30pm 5.8 1.0 2.4 79 1.5 WNW 17 26 9 14 1010.1 1008.6 0.2
26/04:00pm 5.7 0.6 3.9 88 0.8 W 20 28 11 15 1010.1 1008.6 0.2
26/03:30pm 8.7 4.5 3.9 72 2.2 NNW 15 24 8 13 1009.6 1008.1 0.2
26/03:00pm 6.3 2.2 2.4 76 1.7 NNW 13 22 7 12 1010.0 1008.4 0.2
26/02:30pm 7.1 2.4 3.0 75 1.8 NW 17 24 9 13 1010.0 1008.4 0.2
26/02:00pm 8.9 3.6 2.9 66 2.7 W 20 30 11 16 1010.0 1008.4 0.2
26/01:30pm 9.4 5.0 2.9 64 3.0 WNW 15 24 8 13 1010.1 1008.6 0.2
26/01:00pm 7.8 3.1 2.9 71 2.2 W 17 24 9 13 1010.4 1008.9 0.2
26/12:30pm 7.2 2.5 3.1 75 1.8 W 17 24 9 13 1010.6 1009.1 0.2
26/12:00pm 7.2 2.1 4.0 80 1.5 W 20 28 11 15 1010.6 1009.1 0.2
26/11:30am 7.8 3.6 5.6 86 1.1 WNW 17 26 9 14 1010.5 1009.0 0.2
26/11:00am 6.2 2.4 4.0 86 1.0 WNW 13 20 7 11 1010.3 1008.8 0.2
26/10:30am 5.2 1.4 3.7 90 0.7 WNW 13 22 7 12 1010.4 1008.9 0.2
26/10:00am 4.6 1.5 3.6 93 0.4 NW 9 17 5 9 1010.3 1008.8 0.2
26/09:30am 3.3 -0.4 2.6 95 0.3 NNE 11 15 6 8 1010.6 1009.1 0.0
26/09:00am 2.3 -0.8 1.6 95 0.3 N 7 15 4 8 1010.8 1009.2 13.8
26/08:30am 3.0 -2.3 2.0 93 0.4 WNW 19 28 10 15 1011.0 1009.5 12.2
26/08:00am 3.7 -0.7 2.8 94 0.4 WNW 15 22 8 12 1010.8 1009.2 11.8
26/07:30am 3.9 1.1 3.0 94 0.4 N 7 11 4 6 1010.0 1008.4 11.6
26/07:00am 4.3 1.6 3.7 96 0.3 N 7 9 4 5 1010.3 1008.8 11.6
26/06:30am 4.3 1.2 3.7 96 0.3 NNE 9 15 5 8 1010.5 1009.0 11.2
26/06:00am 4.2 -0.8 3.8 97 0.2 NE 19 30 10 16 1010.3 1008.8 10.4
26/05:30am 3.4 -1.0 2.5 94 0.4 NNE 15 24 8 13 1010.6 1009.1 8.2
26/05:00am 3.3 -0.4 2.1 92 0.5 N 11 19 6 10 1010.8 1009.2 6.2
26/04:30am 4.3 -0.1 2.7 89 0.7 N 15 24 8 13 1011.0 1009.5 3.6
26/04:00am 5.2 0.9 3.5 89 0.8 NNW 15 30 8 16 1011.2 1009.7 2.6
26/03:30am 5.3 1.3 4.9 97 0.2 NE 15 20 8 11 1011.3 1009.8 1.6
26/03:00am 5.3 1.3 4.7 96 0.3 NNE 15 22 8 12 1011.6 1010.1 0.8
26/02:30am 5.2 1.1 4.5 95 0.3 NNE 15 20 8 11 1011.8 1010.3 0.0
26/02:00am 5.3 1.2 4.1 92 0.5 NNE 15 20 8 11 1012.2 1010.7 0.0
26/01:30am 5.3 1.9 3.8 90 0.7 NE 11 15 6 8 1012.9 1011.4 0.0
26/01:00am 5.2 1.2 3.1 86 0.9 NNE 13 20 7 11 1013.4 1012.0 0.0
26/12:30am 4.5 0.9 2.7 88 0.8 NNE 11 19 6 10 1013.4 1012.0 0.0
26/12:00am 5.3 1.3 2.8 84 1.1 NNE 13 20 7 11 1013.9 1012.4 0.0
 
Date/Time
EDT
Temp
°C
App
Temp
°C
Dew
Point
Rel
Hum
%
Delta-T
°C
Wind Press
QNH
hPa
Press
MSL
hPa
Rain
since 9 am
mm
Dir
 
Spd
km/h
Gust
km/h
Spd
kts
Gust
kts
25/11:30pm 5.5 1.2 3.0 84 1.1 N 15 22 8 12 1014.0 1012.5 0.0
25/11:00pm 5.4 1.9 3.3 86 0.9 N 11 20 6 11 1014.1 1012.6 0.0
25/10:30pm 5.4 1.4 3.1 85 1.0 N 13 20 7 11 1014.0 1012.5 0.0
25/10:00pm 5.4 1.5 3.3 86 0.9 N 13 20 7 11 1013.7 1012.3 0.0
25/09:30pm 5.1 2.5 3.3 88 0.8 NNE 6 13 3 7 1013.9 1012.4 0.0
25/09:00pm 5.6 2.5 3.4 86 1.0 NNE 9 17 5 9 1013.9 1012.4 0.0
25/08:30pm 6.2 3.2 3.9 85 1.0 NNE 9 13 5 7 1013.9 1012.4 0.0
25/08:00pm 6.6 3.2 3.9 83 1.2 NNE 11 17 6 9 1013.9 1012.4 0.0
25/07:30pm 6.7 4.1 3.3 79 1.5 N 6 9 3 5 1013.7 1012.3 0.0
25/07:00pm 7.5 4.4 3.6 76 1.8 NNW 9 13 5 7 1013.7 1012.3 0.0
25/06:30pm 8.1 4.6 3.6 73 2.1 NNW 11 17 6 9 1013.5 1012.1 0.0
25/06:00pm 8.5 4.7 3.8 72 2.2 NNW 13 22 7 12 1013.3 1011.8 0.0
25/05:30pm 9.4 6.1 4.4 71 2.4 NNW 11 20 6 11 1012.9 1011.4 0.0
25/05:00pm 8.9 5.1 3.7 70 2.4 NNW 13 22 7 12 1013.0 1011.5 0.0
25/04:30pm 9.2 5.3 3.4 67 2.7 NNW 13 22 7 12 1013.2 1011.7 0.0
25/04:00pm 9.0 5.1 3.4 68 2.6 NNW 13 20 7 11 1013.2 1011.7 0.0
25/03:30pm 9.6 5.8 4.0 68 2.6 N 13 24 7 13 1013.4 1012.0 0.0
25/03:00pm 9.8 6.0 4.0 67 2.7 NNW 13 20 7 11 1013.5 1012.1 0.0
25/02:30pm 10.5 6.8 4.2 65 3.0 NNW 13 24 7 13 1013.5 1012.1 0.0
25/02:00pm 10.5 6.7 3.8 63 3.2 WNW 13 20 7 11 1013.9 1012.4 0.0
25/01:30pm 11.2 6.7 4.4 63 3.3 W 17 24 9 13 1014.2 1012.8 0.0
25/01:00pm 10.6 6.8 4.1 64 3.1 WNW 13 28 7 15 1014.6 1013.2 0.0
25/12:30pm 9.9 5.2 3.2 63 3.1 WNW 17 28 9 15 1014.7 1013.3 0.0
25/12:00pm 9.9 4.7 3.6 65 2.9 W 20 35 11 19 1014.9 1013.4 0.0
25/11:30am 9.1 3.1 3.5 68 2.6 W 24 33 13 18 1015.3 1013.9 0.0
25/11:00am 8.5 3.5 3.8 72 2.2 WNW 19 30 10 16 1015.3 1013.9 0.0
25/10:30am 7.2 2.2 3.4 77 1.7 WNW 19 26 10 14 1015.2 1013.8 0.0
25/10:00am 6.1 0.9 2.2 76 1.7 WNW 19 30 10 16 1015.2 1013.8 0.0
25/09:30am 5.1 0.6 2.1 81 1.3 WNW 15 20 8 11 1015.3 1013.9 0.0
25/09:00am 4.7 0.7 2.9 88 0.8 W 13 20 7 11 1015.0 1013.5 0.0
25/08:30am 3.4 -0.4 1.8 89 0.7 WNW 11 17 6 9 1014.7 1013.3 0.0
25/08:00am 2.7 -0.4 1.4 91 0.5 W 7 11 4 6 1014.6 1013.2 0.0
25/07:30am 1.6 -1.6 0.9 95 0.3 W 7 11 4 6 1014.7 1013.3 0.0
25/07:00am 1.3 -2.0 0.4 94 0.4 WNW 7 11 4 6 1014.6 1013.2 0.0
25/06:30am 1.8 -2.2 0.8 93 0.4 WNW 11 15 6 8 1014.5 1013.1 0.0
25/06:00am 2.3 -3.3 1.3 93 0.4 W 20 28 11 15 1014.6 1013.2 0.0
25/05:30am 2.6 -1.9 2.3 98 0.1 W 15 22 8 12 1014.4 1013.0 0.0
25/05:00am 2.5 -1.6 2.4 99 0.0 W 13 17 7 9 1014.6 1013.2 0.0
25/04:30am 1.3 -0.9 1.2 99 0.0 WSW 2 7 1 4 1014.5 1013.1 0.0
25/04:00am 1.3 -1.6 1.2 99 0.0 WSW 6 9 3 5 1014.6 1013.2 0.0
25/03:30am 1.2 -1.9 1.1 99 0.0 WSW 7 9 4 5 1014.9 1013.4 0.0
25/03:00am 0.7 -2.3 0.6 99 0.0 WSW 6 7 3 4 1015.1 1013.7 0.0
25/02:30am 0.1 -3.6 0.0 99 0.0 WSW 9 11 5 6 1015.4 1014.0 0.0
25/02:00am 0.1 -3.6 0.0 99 0.0 WSW 9 11 5 6 1015.2 1013.8 0.0
25/01:30am -0.1 -3.9 -0.4 98 0.1 WSW 9 11 5 6 1015.1 1013.7 0.0
25/01:00am 0.5 -2.6 -0.1 96 0.2 ENE 6 9 3 5 1015.1 1013.7 0.0
25/12:30am 2.0 -1.1 1.6 97 0.2 WSW 7 9 4 5 1015.5 1014.1 0.0
25/12:00am 2.9 -0.4 2.5 97 0.2 W 9 9 5 5 1015.9 1014.5 0.0
 
Date/Time
EDT
Temp
°C
App
Temp
°C
Dew
Point
Rel
Hum
%
Delta-T
°C
Wind Press
QNH
hPa
Press
MSL
hPa
Rain
since 9 am
mm
Dir
 
Spd
km/h
Gust
km/h
Spd
kts
Gust
kts
24/11:30pm 3.0 0.1 2.6 97 0.2 NW 7 11 4 6 1016.3 1014.9 0.0
24/11:00pm 2.0 -1.4 1.6 97 0.2 W 9 11 5 6 1016.7 1015.4 0.0
24/10:30pm 1.7 -1.4 1.4 98 0.1 W 7 11 4 6 1016.8 1015.5 0.0
24/10:00pm 1.8 -1.1 1.5 98 0.1 WNW 6 9 3 5 1017.2 1015.8 0.0
24/09:30pm 1.3 -1.9 0.7 96 0.2 WNW 7 11 4 6 1017.2 1015.8 0.0
24/09:00pm 1.5 -2.1 0.6 94 0.4 W 9 9 5 5 1017.3 1015.9 0.0
24/08:30pm 2.2 -1.3 1.0 92 0.5 WSW 9 11 5 6 1017.0 1015.6 0.0
24/08:00pm 2.9 0.8 1.6 91 0.5 SW 2 9 1 5 1017.0 1015.6 0.0
24/07:30pm 3.8 0.0 1.8 87 0.8 SSW 11 13 6 7 1016.5 1015.1 0.0

Other Formats:

Comma delimited format used in spreadsheet applications
http://www.bom.gov.au/fwo/IDT60801/IDT60801.95959.axf

JavaScript Object Notation format (JSON) in row-major order
http://www.bom.gov.au/fwo/IDT60801/IDT60801.95959.json